sensor_id;sensor_type;location;lat;lon;timestamp;temperature;humidity
66568;DHT22;53422;49.296;6.900;2022-10-16T00:01:47;14.70;99.90
66568;DHT22;53422;49.296;6.900;2022-10-16T00:04:13;14.70;99.90
66568;DHT22;53422;49.296;6.900;2022-10-16T00:06:39;14.60;99.90
66568;DHT22;53422;49.296;6.900;2022-10-16T00:09:05;14.60;99.90
66568;DHT22;53422;49.296;6.900;2022-10-16T00:11:33;14.60;99.90
66568;DHT22;53422;49.296;6.900;2022-10-16T00:14:03;14.60;99.90
66568;DHT22;53422;49.296;6.900;2022-10-16T00:16:29;14.60;99.90
66568;DHT22;53422;49.296;6.900;2022-10-16T00:18:55;14.60;99.90
66568;DHT22;53422;49.296;6.900;2022-10-16T00:21:24;14.60;99.90
66568;DHT22;53422;49.296;6.900;2022-10-16T00:23:52;14.60;99.90
66568;DHT22;53422;49.296;6.900;2022-10-16T00:26:19;14.60;99.90
66568;DHT22;53422;49.296;6.900;2022-10-16T00:28:46;14.60;99.90
66568;DHT22;53422;49.296;6.900;2022-10-16T00:31:12;14.60;99.90
66568;DHT22;53422;49.296;6.900;2022-10-16T00:33:39;14.60;99.90
66568;DHT22;53422;49.296;6.900;2022-10-16T00:36:06;14.60;99.90
66568;DHT22;53422;49.296;6.900;2022-10-16T00:38:33;14.60;99.90
66568;DHT22;53422;49.296;6.900;2022-10-16T00:40:58;14.60;99.90
66568;DHT22;53422;49.296;6.900;2022-10-16T00:43:43;14.60;99.90
66568;DHT22;53422;49.296;6.900;2022-10-16T00:46:13;14.60;99.90
66568;DHT22;53422;49.296;6.900;2022-10-16T00:48:40;14.60;99.90
66568;DHT22;53422;49.296;6.900;2022-10-16T00:51:07;14.60;99.90
66568;DHT22;53422;49.296;6.900;2022-10-16T00:53:33;14.60;99.90
66568;DHT22;53422;49.296;6.900;2022-10-16T00:56:00;14.60;99.90
66568;DHT22;53422;49.296;6.900;2022-10-16T00:58:26;14.60;99.90
66568;DHT22;53422;49.296;6.900;2022-10-16T01:00:51;14.60;99.90
66568;DHT22;53422;49.296;6.900;2022-10-16T01:03:33;14.60;99.90
66568;DHT22;53422;49.296;6.900;2022-10-16T01:06:13;14.60;99.90
66568;DHT22;53422;49.296;6.900;2022-10-16T01:09:06;14.60;99.90
66568;DHT22;53422;49.296;6.900;2022-10-16T01:11:46;14.60;99.90
66568;DHT22;53422;49.296;6.900;2022-10-16T01:14:22;14.60;99.90
66568;DHT22;53422;49.296;6.900;2022-10-16T01:17:06;14.60;99.90
66568;DHT22;53422;49.296;6.900;2022-10-16T01:19:50;14.60;99.90
66568;DHT22;53422;49.296;6.900;2022-10-16T01:22:21;14.60;99.90
66568;DHT22;53422;49.296;6.900;2022-10-16T01:24:50;14.60;99.90
66568;DHT22;53422;49.296;6.900;2022-10-16T01:27:28;14.60;99.90
66568;DHT22;53422;49.296;6.900;2022-10-16T01:30:12;14.60;99.90
66568;DHT22;53422;49.296;6.900;2022-10-16T01:32:46;14.60;99.90
66568;DHT22;53422;49.296;6.900;2022-10-16T01:35:22;14.60;99.90
66568;DHT22;53422;49.296;6.900;2022-10-16T01:40:17;14.60;99.90
66568;DHT22;53422;49.296;6.900;2022-10-16T01:42:48;14.60;99.90
66568;DHT22;53422;49.296;6.900;2022-10-16T01:45:17;14.60;99.90
66568;DHT22;53422;49.296;6.900;2022-10-16T01:47:45;14.60;99.90
66568;DHT22;53422;49.296;6.900;2022-10-16T01:50:12;14.60;99.90
66568;DHT22;53422;49.296;6.900;2022-10-16T01:52:43;14.60;99.90
66568;DHT22;53422;49.296;6.900;2022-10-16T01:55:14;14.60;99.90
66568;DHT22;53422;49.296;6.900;2022-10-16T01:57:42;14.60;99.90
66568;DHT22;53422;49.296;6.900;2022-10-16T02:00:11;14.60;99.90
66568;DHT22;53422;49.296;6.900;2022-10-16T02:02:40;14.60;99.90
66568;DHT22;53422;49.296;6.900;2022-10-16T02:07:38;14.50;99.90
66568;DHT22;53422;49.296;6.900;2022-10-16T02:10:04;14.60;99.90
66568;DHT22;53422;49.296;6.900;2022-10-16T02:12:34;14.60;99.90
66568;DHT22;53422;49.296;6.900;2022-10-16T02:15:01;14.60;99.90
66568;DHT22;53422;49.296;6.900;2022-10-16T02:17:27;14.60;99.90
66568;DHT22;53422;49.296;6.900;2022-10-16T02:19:54;14.50;99.90
66568;DHT22;53422;49.296;6.900;2022-10-16T02:22:28;14.50;99.90
66568;DHT22;53422;49.296;6.900;2022-10-16T02:25:17;14.50;99.90
66568;DHT22;53422;49.296;6.900;2022-10-16T02:32:48;14.50;99.90
66568;DHT22;53422;49.296;6.900;2022-10-16T02:35:20;14.50;99.90
66568;DHT22;53422;49.296;6.900;2022-10-16T02:37:47;14.50;99.90
66568;DHT22;53422;49.296;6.900;2022-10-16T02:40:14;14.50;99.90
66568;DHT22;53422;49.296;6.900;2022-10-16T02:42:41;14.50;99.90
66568;DHT22;53422;49.296;6.900;2022-10-16T02:45:09;14.50;99.90
66568;DHT22;53422;49.296;6.900;2022-10-16T02:47:35;14.50;99.90
66568;DHT22;53422;49.296;6.900;2022-10-16T02:50:01;14.50;99.90
66568;DHT22;53422;49.296;6.900;2022-10-16T02:52:26;14.50;99.90
66568;DHT22;53422;49.296;6.900;2022-10-16T02:54:52;14.50;99.90
66568;DHT22;53422;49.296;6.900;2022-10-16T02:57:18;14.50;99.90
66568;DHT22;53422;49.296;6.900;2022-10-16T02:59:44;14.50;99.90
66568;DHT22;53422;49.296;6.900;2022-10-16T03:02:10;14.50;99.90
66568;DHT22;53422;49.296;6.900;2022-10-16T03:04:35;14.50;99.90
66568;DHT22;53422;49.296;6.900;2022-10-16T03:07:01;14.50;99.90
66568;DHT22;53422;49.296;6.900;2022-10-16T03:09:27;14.50;99.90
66568;DHT22;53422;49.296;6.900;2022-10-16T03:11:52;14.50;99.90
66568;DHT22;53422;49.296;6.900;2022-10-16T03:14:18;14.50;99.90
66568;DHT22;53422;49.296;6.900;2022-10-16T03:16:43;14.50;99.90
66568;DHT22;53422;49.296;6.900;2022-10-16T03:19:09;14.50;99.90
66568;DHT22;53422;49.296;6.900;2022-10-16T03:21:35;14.50;99.90
66568;DHT22;53422;49.296;6.900;2022-10-16T03:24:00;14.50;99.90
66568;DHT22;53422;49.296;6.900;2022-10-16T03:26:26;14.50;99.90
66568;DHT22;53422;49.296;6.900;2022-10-16T03:28:51;14.50;99.90
66568;DHT22;53422;49.296;6.900;2022-10-16T03:31:17;14.50;99.90
66568;DHT22;53422;49.296;6.900;2022-10-16T03:33:42;14.50;99.90
66568;DHT22;53422;49.296;6.900;2022-10-16T03:36:08;14.50;99.90
66568;DHT22;53422;49.296;6.900;2022-10-16T03:38:33;14.40;99.90
66568;DHT22;53422;49.296;6.900;2022-10-16T03:40:59;14.50;99.90
66568;DHT22;53422;49.296;6.900;2022-10-16T03:43:25;14.50;99.90
66568;DHT22;53422;49.296;6.900;2022-10-16T03:45:51;14.50;99.90
66568;DHT22;53422;49.296;6.900;2022-10-16T03:48:17;14.50;99.90
66568;DHT22;53422;49.296;6.900;2022-10-16T03:50:43;14.50;99.90
66568;DHT22;53422;49.296;6.900;2022-10-16T03:53:09;14.40;99.90
66568;DHT22;53422;49.296;6.900;2022-10-16T03:55:35;14.40;99.90
66568;DHT22;53422;49.296;6.900;2022-10-16T03:58:00;14.50;99.90
66568;DHT22;53422;49.296;6.900;2022-10-16T04:00:27;14.40;99.90
66568;DHT22;53422;49.296;6.900;2022-10-16T04:02:52;14.50;99.90
66568;DHT22;53422;49.296;6.900;2022-10-16T04:05:18;14.50;99.90
66568;DHT22;53422;49.296;6.900;2022-10-16T04:07:44;14.50;99.90
66568;DHT22;53422;49.296;6.900;2022-10-16T04:10:09;14.40;99.90
66568;DHT22;53422;49.296;6.900;2022-10-16T04:12:35;14.50;99.90
66568;DHT22;53422;49.296;6.900;2022-10-16T04:15:01;14.50;99.90
66568;DHT22;53422;49.296;6.900;2022-10-16T04:17:26;14.40;99.90
66568;DHT22;53422;49.296;6.900;2022-10-16T04:19:52;14.40;99.90
66568;DHT22;53422;49.296;6.900;2022-10-16T04:22:17;14.40;99.90
66568;DHT22;53422;49.296;6.900;2022-10-16T04:24:43;14.40;99.90
66568;DHT22;53422;49.296;6.900;2022-10-16T04:27:08;14.40;99.90
66568;DHT22;53422;49.296;6.900;2022-10-16T04:29:34;14.40;99.90
66568;DHT22;53422;49.296;6.900;2022-10-16T04:32:00;14.40;99.90
66568;DHT22;53422;49.296;6.900;2022-10-16T04:34:25;14.40;99.90
66568;DHT22;53422;49.296;6.900;2022-10-16T04:36:51;14.40;99.90
66568;DHT22;53422;49.296;6.900;2022-10-16T04:39:17;14.50;99.90
66568;DHT22;53422;49.296;6.900;2022-10-16T04:41:43;14.40;99.90
66568;DHT22;53422;49.296;6.900;2022-10-16T04:44:08;14.40;99.90
66568;DHT22;53422;49.296;6.900;2022-10-16T04:46:34;14.40;99.90
66568;DHT22;53422;49.296;6.900;2022-10-16T04:49:00;14.40;99.90
66568;DHT22;53422;49.296;6.900;2022-10-16T04:51:25;14.40;99.90
66568;DHT22;53422;49.296;6.900;2022-10-16T04:53:53;14.50;99.90
66568;DHT22;53422;49.296;6.900;2022-10-16T04:56:18;14.40;99.90
66568;DHT22;53422;49.296;6.900;2022-10-16T04:58:44;14.40;99.90
66568;DHT22;53422;49.296;6.900;2022-10-16T05:01:09;14.40;99.90
66568;DHT22;53422;49.296;6.900;2022-10-16T05:03:35;14.40;99.90
66568;DHT22;53422;49.296;6.900;2022-10-16T05:06:00;14.40;99.90
66568;DHT22;53422;49.296;6.900;2022-10-16T05:08:26;14.40;99.90
66568;DHT22;53422;49.296;6.900;2022-10-16T05:10:51;14.40;99.90
66568;DHT22;53422;49.296;6.900;2022-10-16T05:13:17;14.40;99.90
66568;DHT22;53422;49.296;6.900;2022-10-16T05:15:47;14.40;99.90
66568;DHT22;53422;49.296;6.900;2022-10-16T05:18:13;14.40;99.90
66568;DHT22;53422;49.296;6.900;2022-10-16T05:20:39;14.40;99.90
66568;DHT22;53422;49.296;6.900;2022-10-16T05:23:04;14.40;99.90
66568;DHT22;53422;49.296;6.900;2022-10-16T05:25:30;14.40;99.90
66568;DHT22;53422;49.296;6.900;2022-10-16T05:27:56;14.40;99.90
66568;DHT22;53422;49.296;6.900;2022-10-16T05:30:21;14.40;99.90
66568;DHT22;53422;49.296;6.900;2022-10-16T05:32:48;14.40;99.90
66568;DHT22;53422;49.296;6.900;2022-10-16T05:35:14;14.40;99.90
66568;DHT22;53422;49.296;6.900;2022-10-16T05:37:40;14.40;99.90
66568;DHT22;53422;49.296;6.900;2022-10-16T05:40:06;14.30;99.90
66568;DHT22;53422;49.296;6.900;2022-10-16T05:42:32;14.40;99.90
66568;DHT22;53422;49.296;6.900;2022-10-16T05:44:57;14.40;99.90
66568;DHT22;53422;49.296;6.900;2022-10-16T05:47:23;14.40;99.90
66568;DHT22;53422;49.296;6.900;2022-10-16T05:49:48;14.40;99.90
66568;DHT22;53422;49.296;6.900;2022-10-16T05:52:14;14.40;99.90
66568;DHT22;53422;49.296;6.900;2022-10-16T05:54:40;14.40;99.90
66568;DHT22;53422;49.296;6.900;2022-10-16T05:57:05;14.40;99.90
66568;DHT22;53422;49.296;6.900;2022-10-16T05:59:31;14.40;99.90
66568;DHT22;53422;49.296;6.900;2022-10-16T06:01:57;14.40;99.90
66568;DHT22;53422;49.296;6.900;2022-10-16T06:04:23;14.40;99.90
66568;DHT22;53422;49.296;6.900;2022-10-16T06:06:48;14.40;99.90
66568;DHT22;53422;49.296;6.900;2022-10-16T06:09:14;14.40;99.90
66568;DHT22;53422;49.296;6.900;2022-10-16T06:11:39;14.40;99.90
66568;DHT22;53422;49.296;6.900;2022-10-16T06:14:05;14.40;99.90
66568;DHT22;53422;49.296;6.900;2022-10-16T06:16:34;14.40;99.90
66568;DHT22;53422;49.296;6.900;2022-10-16T06:19:00;14.40;99.90
66568;DHT22;53422;49.296;6.900;2022-10-16T06:21:27;14.40;99.90
66568;DHT22;53422;49.296;6.900;2022-10-16T06:23:54;14.40;99.90
66568;DHT22;53422;49.296;6.900;2022-10-16T06:26:22;14.40;99.90
66568;DHT22;53422;49.296;6.900;2022-10-16T06:28:48;14.40;99.90
66568;DHT22;53422;49.296;6.900;2022-10-16T06:31:15;14.40;99.90
66568;DHT22;53422;49.296;6.900;2022-10-16T06:33:41;14.40;99.90
66568;DHT22;53422;49.296;6.900;2022-10-16T06:36:09;14.40;99.90
66568;DHT22;53422;49.296;6.900;2022-10-16T06:38:36;14.40;99.90
66568;DHT22;53422;49.296;6.900;2022-10-16T06:41:02;14.40;99.90
66568;DHT22;53422;49.296;6.900;2022-10-16T06:43:29;14.40;99.90
66568;DHT22;53422;49.296;6.900;2022-10-16T06:45:59;14.50;99.90
66568;DHT22;53422;49.296;6.900;2022-10-16T06:48:25;14.50;99.90
66568;DHT22;53422;49.296;6.900;2022-10-16T06:51:08;14.50;99.90
66568;DHT22;53422;49.296;6.900;2022-10-16T06:53:35;14.50;99.90
66568;DHT22;53422;49.296;6.900;2022-10-16T06:56:09;14.50;99.90
66568;DHT22;53422;49.296;6.900;2022-10-16T06:58:36;14.50;99.90
66568;DHT22;53422;49.296;6.900;2022-10-16T07:01:01;14.40;99.90
66568;DHT22;53422;49.296;6.900;2022-10-16T07:03:27;14.50;99.90
66568;DHT22;53422;49.296;6.900;2022-10-16T07:05:52;14.50;99.90
66568;DHT22;53422;49.296;6.900;2022-10-16T07:08:18;14.50;99.90
66568;DHT22;53422;49.296;6.900;2022-10-16T07:10:43;14.50;99.90
66568;DHT22;53422;49.296;6.900;2022-10-16T07:13:09;14.50;99.90
66568;DHT22;53422;49.296;6.900;2022-10-16T07:15:38;14.50;99.90
66568;DHT22;53422;49.296;6.900;2022-10-16T07:18:04;14.60;99.90
66568;DHT22;53422;49.296;6.900;2022-10-16T07:20:29;14.50;99.90
66568;DHT22;53422;49.296;6.900;2022-10-16T07:22:55;14.60;99.90
66568;DHT22;53422;49.296;6.900;2022-10-16T07:25:20;14.50;99.90
66568;DHT22;53422;49.296;6.900;2022-10-16T07:27:46;14.50;99.90
66568;DHT22;53422;49.296;6.900;2022-10-16T07:30:12;14.50;99.90
66568;DHT22;53422;49.296;6.900;2022-10-16T07:32:37;14.50;99.90
66568;DHT22;53422;49.296;6.900;2022-10-16T07:35:04;14.50;99.90
66568;DHT22;53422;49.296;6.900;2022-10-16T07:37:29;14.50;99.90
66568;DHT22;53422;49.296;6.900;2022-10-16T07:39:55;14.50;99.90
66568;DHT22;53422;49.296;6.900;2022-10-16T07:42:20;14.60;99.90
66568;DHT22;53422;49.296;6.900;2022-10-16T07:44:46;14.60;99.90
66568;DHT22;53422;49.296;6.900;2022-10-16T07:47:12;14.60;99.90
66568;DHT22;53422;49.296;6.900;2022-10-16T07:49:37;14.60;99.90
66568;DHT22;53422;49.296;6.900;2022-10-16T07:52:03;14.60;99.90
66568;DHT22;53422;49.296;6.900;2022-10-16T07:54:28;14.70;99.90
66568;DHT22;53422;49.296;6.900;2022-10-16T07:56:54;14.70;99.90
66568;DHT22;53422;49.296;6.900;2022-10-16T07:59:20;14.70;99.90
66568;DHT22;53422;49.296;6.900;2022-10-16T08:01:46;14.70;99.90
66568;DHT22;53422;49.296;6.900;2022-10-16T08:04:11;14.80;99.90
66568;DHT22;53422;49.296;6.900;2022-10-16T08:06:39;14.70;99.90
66568;DHT22;53422;49.296;6.900;2022-10-16T08:09:06;14.80;99.90
66568;DHT22;53422;49.296;6.900;2022-10-16T08:11:32;14.80;99.90
66568;DHT22;53422;49.296;6.900;2022-10-16T08:13:57;14.80;99.90
66568;DHT22;53422;49.296;6.900;2022-10-16T08:16:23;14.80;99.90
66568;DHT22;53422;49.296;6.900;2022-10-16T08:18:49;14.80;99.90
66568;DHT22;53422;49.296;6.900;2022-10-16T08:21:18;14.80;99.90
66568;DHT22;53422;49.296;6.900;2022-10-16T08:23:44;14.90;99.90
66568;DHT22;53422;49.296;6.900;2022-10-16T08:26:11;14.90;99.90
66568;DHT22;53422;49.296;6.900;2022-10-16T08:28:37;14.90;99.90
66568;DHT22;53422;49.296;6.900;2022-10-16T08:31:14;15.00;99.90
66568;DHT22;53422;49.296;6.900;2022-10-16T08:33:41;14.90;99.90
66568;DHT22;53422;49.296;6.900;2022-10-16T08:36:09;15.00;99.90
66568;DHT22;53422;49.296;6.900;2022-10-16T08:38:35;15.00;99.90
66568;DHT22;53422;49.296;6.900;2022-10-16T08:41:22;15.10;99.90
66568;DHT22;53422;49.296;6.900;2022-10-16T08:48:57;15.20;99.90
66568;DHT22;53422;49.296;6.900;2022-10-16T08:53:59;15.30;99.90
66568;DHT22;53422;49.296;6.900;2022-10-16T08:56:27;15.30;99.90
66568;DHT22;53422;49.296;6.900;2022-10-16T08:58:53;15.40;99.90
66568;DHT22;53422;49.296;6.900;2022-10-16T09:01:22;15.40;99.90
66568;DHT22;53422;49.296;6.900;2022-10-16T09:04:29;15.40;99.90
66568;DHT22;53422;49.296;6.900;2022-10-16T09:12:46;15.60;99.90
66568;DHT22;53422;49.296;6.900;2022-10-16T09:18:01;15.70;99.90
66568;DHT22;53422;49.296;6.900;2022-10-16T09:25:46;15.80;99.90
66568;DHT22;53422;49.296;6.900;2022-10-16T09:28:13;15.80;99.90
66568;DHT22;53422;49.296;6.900;2022-10-16T09:30:39;15.90;99.90
66568;DHT22;53422;49.296;6.900;2022-10-16T09:33:06;15.90;99.90
66568;DHT22;53422;49.296;6.900;2022-10-16T09:37:57;16.00;99.90
66568;DHT22;53422;49.296;6.900;2022-10-16T09:40:32;16.00;99.90
66568;DHT22;53422;49.296;6.900;2022-10-16T09:45:59;16.00;99.90
66568;DHT22;53422;49.296;6.900;2022-10-16T09:48:35;16.00;99.90
66568;DHT22;53422;49.296;6.900;2022-10-16T09:51:04;16.00;99.90
66568;DHT22;53422;49.296;6.900;2022-10-16T09:53:44;16.10;99.90
66568;DHT22;53422;49.296;6.900;2022-10-16T09:56:26;16.10;99.90
66568;DHT22;53422;49.296;6.900;2022-10-16T09:58:54;16.10;99.90
66568;DHT22;53422;49.296;6.900;2022-10-16T10:01:21;16.10;99.90
66568;DHT22;53422;49.296;6.900;2022-10-16T10:03:47;16.20;99.90
66568;DHT22;53422;49.296;6.900;2022-10-16T10:06:25;16.30;99.90
66568;DHT22;53422;49.296;6.900;2022-10-16T10:08:59;16.30;99.90
66568;DHT22;53422;49.296;6.900;2022-10-16T10:16:47;16.50;99.90
66568;DHT22;53422;49.296;6.900;2022-10-16T10:19:21;16.50;99.90
66568;DHT22;53422;49.296;6.900;2022-10-16T10:21:48;16.50;99.90
66568;DHT22;53422;49.296;6.900;2022-10-16T10:24:16;16.60;99.90
66568;DHT22;53422;49.296;6.900;2022-10-16T10:26:48;16.60;99.90
66568;DHT22;53422;49.296;6.900;2022-10-16T10:34:41;16.90;99.90
66568;DHT22;53422;49.296;6.900;2022-10-16T10:37:36;16.90;99.90
66568;DHT22;53422;49.296;6.900;2022-10-16T10:40:17;16.90;99.90
66568;DHT22;53422;49.296;6.900;2022-10-16T10:42:53;17.00;99.90
66568;DHT22;53422;49.296;6.900;2022-10-16T10:45:42;17.10;99.90
66568;DHT22;53422;49.296;6.900;2022-10-16T10:51:04;17.10;99.90
66568;DHT22;53422;49.296;6.900;2022-10-16T10:53:38;17.10;99.90
66568;DHT22;53422;49.296;6.900;2022-10-16T10:59:00;17.20;99.90
66568;DHT22;53422;49.296;6.900;2022-10-16T11:01:48;17.20;99.90
66568;DHT22;53422;49.296;6.900;2022-10-16T11:07:32;17.30;99.90
66568;DHT22;53422;49.296;6.900;2022-10-16T11:10:11;17.30;99.90
66568;DHT22;53422;49.296;6.900;2022-10-16T11:12:42;17.30;99.90
66568;DHT22;53422;49.296;6.900;2022-10-16T11:15:17;17.30;99.90
66568;DHT22;53422;49.296;6.900;2022-10-16T11:20:32;17.40;99.90
66568;DHT22;53422;49.296;6.900;2022-10-16T11:23:13;17.40;99.90
66568;DHT22;53422;49.296;6.900;2022-10-16T11:25:42;17.40;99.90
66568;DHT22;53422;49.296;6.900;2022-10-16T11:28:15;17.40;99.90
66568;DHT22;53422;49.296;6.900;2022-10-16T11:30:50;17.40;99.90
66568;DHT22;53422;49.296;6.900;2022-10-16T11:36:00;17.40;99.90
66568;DHT22;53422;49.296;6.900;2022-10-16T11:41:34;17.40;99.90
66568;DHT22;53422;49.296;6.900;2022-10-16T11:46:48;17.40;99.90
66568;DHT22;53422;49.296;6.900;2022-10-16T11:49:19;17.40;99.90
66568;DHT22;53422;49.296;6.900;2022-10-16T11:54:52;17.40;99.90
66568;DHT22;53422;49.296;6.900;2022-10-16T11:57:35;17.50;99.90
66568;DHT22;53422;49.296;6.900;2022-10-16T12:00:23;17.40;99.90
66568;DHT22;53422;49.296;6.900;2022-10-16T12:08:20;17.40;99.90
66568;DHT22;53422;49.296;6.900;2022-10-16T12:10:47;17.40;99.90
66568;DHT22;53422;49.296;6.900;2022-10-16T12:13:36;17.40;99.90
66568;DHT22;53422;49.296;6.900;2022-10-16T12:18:37;17.40;99.90
66568;DHT22;53422;49.296;6.900;2022-10-16T12:21:04;17.40;99.90
66568;DHT22;53422;49.296;6.900;2022-10-16T12:23:33;17.40;99.90
66568;DHT22;53422;49.296;6.900;2022-10-16T12:26:01;17.60;99.90
66568;DHT22;53422;49.296;6.900;2022-10-16T12:28:30;17.50;99.90
66568;DHT22;53422;49.296;6.900;2022-10-16T12:31:07;17.50;99.90
66568;DHT22;53422;49.296;6.900;2022-10-16T12:33:51;17.50;99.90
66568;DHT22;53422;49.296;6.900;2022-10-16T12:36:34;17.40;99.90
66568;DHT22;53422;49.296;6.900;2022-10-16T12:39:00;17.50;99.90
66568;DHT22;53422;49.296;6.900;2022-10-16T12:41:34;17.50;99.90
66568;DHT22;53422;49.296;6.900;2022-10-16T12:44:01;17.40;99.90
66568;DHT22;53422;49.296;6.900;2022-10-16T12:49:15;17.50;99.90
66568;DHT22;53422;49.296;6.900;2022-10-16T12:51:44;17.70;99.90
66568;DHT22;53422;49.296;6.900;2022-10-16T12:54:14;17.60;99.90
66568;DHT22;53422;49.296;6.900;2022-10-16T12:57:03;17.60;99.90
66568;DHT22;53422;49.296;6.900;2022-10-16T12:59:53;17.70;99.90
66568;DHT22;53422;49.296;6.900;2022-10-16T13:05:27;17.70;99.90
66568;DHT22;53422;49.296;6.900;2022-10-16T13:22:23;17.80;99.90
66568;DHT22;53422;49.296;6.900;2022-10-16T13:27:53;18.00;99.90
66568;DHT22;53422;49.296;6.900;2022-10-16T13:30:25;18.00;99.90
66568;DHT22;53422;49.296;6.900;2022-10-16T13:33:06;18.00;99.90
66568;DHT22;53422;49.296;6.900;2022-10-16T13:35:34;18.00;99.90
66568;DHT22;53422;49.296;6.900;2022-10-16T13:40:35;18.00;99.90
66568;DHT22;53422;49.296;6.900;2022-10-16T13:43:00;18.20;99.90
66568;DHT22;53422;49.296;6.900;2022-10-16T13:45:26;18.20;99.90
66568;DHT22;53422;49.296;6.900;2022-10-16T13:48:06;18.10;99.90
66568;DHT22;53422;49.296;6.900;2022-10-16T13:50:34;18.10;99.90
66568;DHT22;53422;49.296;6.900;2022-10-16T13:53:09;18.10;99.90
66568;DHT22;53422;49.296;6.900;2022-10-16T13:55:37;18.10;99.90
66568;DHT22;53422;49.296;6.900;2022-10-16T13:58:13;18.10;99.90
66568;DHT22;53422;49.296;6.900;2022-10-16T14:00:39;18.10;99.90
66568;DHT22;53422;49.296;6.900;2022-10-16T14:03:16;18.20;99.90
66568;DHT22;53422;49.296;6.900;2022-10-16T14:05:48;18.30;99.90
66568;DHT22;53422;49.296;6.900;2022-10-16T14:08:14;18.30;99.90
66568;DHT22;53422;49.296;6.900;2022-10-16T14:10:40;18.30;99.90
66568;DHT22;53422;49.296;6.900;2022-10-16T14:13:07;18.40;99.90
66568;DHT22;53422;49.296;6.900;2022-10-16T14:15:35;18.40;99.90
66568;DHT22;53422;49.296;6.900;2022-10-16T14:18:02;18.30;99.90
66568;DHT22;53422;49.296;6.900;2022-10-16T14:20:33;18.30;99.90
66568;DHT22;53422;49.296;6.900;2022-10-16T14:23:02;18.40;99.90
66568;DHT22;53422;49.296;6.900;2022-10-16T14:25:30;18.40;99.90
66568;DHT22;53422;49.296;6.900;2022-10-16T14:30:28;18.50;99.90
66568;DHT22;53422;49.296;6.900;2022-10-16T14:33:02;18.40;99.90
66568;DHT22;53422;49.296;6.900;2022-10-16T14:35:34;18.50;99.90
66568;DHT22;53422;49.296;6.900;2022-10-16T14:38:02;18.40;99.90
66568;DHT22;53422;49.296;6.900;2022-10-16T14:40:30;18.40;99.90
66568;DHT22;53422;49.296;6.900;2022-10-16T14:42:57;18.40;99.90
66568;DHT22;53422;49.296;6.900;2022-10-16T14:45:26;18.40;99.90
66568;DHT22;53422;49.296;6.900;2022-10-16T14:47:58;18.40;99.90
66568;DHT22;53422;49.296;6.900;2022-10-16T14:50:24;18.40;99.90
66568;DHT22;53422;49.296;6.900;2022-10-16T14:52:50;18.40;99.90
66568;DHT22;53422;49.296;6.900;2022-10-16T14:55:16;18.40;99.90
66568;DHT22;53422;49.296;6.900;2022-10-16T14:57:43;18.40;99.90
66568;DHT22;53422;49.296;6.900;2022-10-16T15:00:21;18.40;99.90
66568;DHT22;53422;49.296;6.900;2022-10-16T15:02:48;18.30;99.90
66568;DHT22;53422;49.296;6.900;2022-10-16T15:05:21;18.30;99.90
66568;DHT22;53422;49.296;6.900;2022-10-16T15:07:48;18.30;99.90
66568;DHT22;53422;49.296;6.900;2022-10-16T15:10:15;18.30;99.90
66568;DHT22;53422;49.296;6.900;2022-10-16T15:12:41;18.30;99.90
66568;DHT22;53422;49.296;6.900;2022-10-16T15:17:51;18.40;99.90
66568;DHT22;53422;49.296;6.900;2022-10-16T15:20:23;18.40;99.90
66568;DHT22;53422;49.296;6.900;2022-10-16T15:22:49;18.30;99.90
66568;DHT22;53422;49.296;6.900;2022-10-16T15:25:39;18.30;99.90
66568;DHT22;53422;49.296;6.900;2022-10-16T15:28:08;18.30;99.90
66568;DHT22;53422;49.296;6.900;2022-10-16T15:30:34;18.40;99.90
66568;DHT22;53422;49.296;6.900;2022-10-16T15:33:01;18.30;99.90
66568;DHT22;53422;49.296;6.900;2022-10-16T15:35:27;18.30;99.90
66568;DHT22;53422;49.296;6.900;2022-10-16T15:37:53;18.20;99.90
66568;DHT22;53422;49.296;6.900;2022-10-16T15:40:20;18.10;99.90
66568;DHT22;53422;49.296;6.900;2022-10-16T15:42:45;18.20;99.90
66568;DHT22;53422;49.296;6.900;2022-10-16T15:45:12;18.20;99.90
66568;DHT22;53422;49.296;6.900;2022-10-16T15:47:38;18.30;99.90
66568;DHT22;53422;49.296;6.900;2022-10-16T15:50:04;18.20;99.90
66568;DHT22;53422;49.296;6.900;2022-10-16T15:52:30;18.20;99.90
66568;DHT22;53422;49.296;6.900;2022-10-16T15:54:57;18.20;99.90
66568;DHT22;53422;49.296;6.900;2022-10-16T15:57:23;18.10;99.90
66568;DHT22;53422;49.296;6.900;2022-10-16T15:59:49;18.10;99.90
66568;DHT22;53422;49.296;6.900;2022-10-16T16:02:15;18.00;99.90
66568;DHT22;53422;49.296;6.900;2022-10-16T16:04:41;17.90;99.90
66568;DHT22;53422;49.296;6.900;2022-10-16T16:07:06;17.90;99.90
66568;DHT22;53422;49.296;6.900;2022-10-16T16:09:35;17.90;99.90
66568;DHT22;53422;49.296;6.900;2022-10-16T16:12:00;17.80;99.90
66568;DHT22;53422;49.296;6.900;2022-10-16T16:14:27;17.70;99.90
66568;DHT22;53422;49.296;6.900;2022-10-16T16:16:56;17.70;99.90
66568;DHT22;53422;49.296;6.900;2022-10-16T16:19:26;17.70;99.90
66568;DHT22;53422;49.296;6.900;2022-10-16T16:21:53;17.70;99.90
66568;DHT22;53422;49.296;6.900;2022-10-16T16:24:19;17.60;99.90
66568;DHT22;53422;49.296;6.900;2022-10-16T16:26:44;17.60;99.90
66568;DHT22;53422;49.296;6.900;2022-10-16T16:29:14;17.60;99.90
66568;DHT22;53422;49.296;6.900;2022-10-16T16:31:41;17.50;99.90
66568;DHT22;53422;49.296;6.900;2022-10-16T16:34:07;17.50;99.90
66568;DHT22;53422;49.296;6.900;2022-10-16T16:36:33;17.50;99.90
66568;DHT22;53422;49.296;6.900;2022-10-16T16:38:59;17.40;99.90
66568;DHT22;53422;49.296;6.900;2022-10-16T16:41:28;17.40;99.90
66568;DHT22;53422;49.296;6.900;2022-10-16T16:43:56;17.30;99.90
66568;DHT22;53422;49.296;6.900;2022-10-16T16:46:26;17.30;99.90
66568;DHT22;53422;49.296;6.900;2022-10-16T16:48:52;17.20;99.90
66568;DHT22;53422;49.296;6.900;2022-10-16T16:51:21;17.20;99.90
66568;DHT22;53422;49.296;6.900;2022-10-16T16:53:49;17.10;99.90
66568;DHT22;53422;49.296;6.900;2022-10-16T16:56:15;17.10;99.90
66568;DHT22;53422;49.296;6.900;2022-10-16T16:58:41;17.00;99.90
66568;DHT22;53422;49.296;6.900;2022-10-16T17:01:09;17.00;99.90
66568;DHT22;53422;49.296;6.900;2022-10-16T17:03:35;17.00;99.90
66568;DHT22;53422;49.296;6.900;2022-10-16T17:06:04;16.90;99.90
66568;DHT22;53422;49.296;6.900;2022-10-16T17:08:31;16.80;99.90
66568;DHT22;53422;49.296;6.900;2022-10-16T17:10:57;16.80;99.90
66568;DHT22;53422;49.296;6.900;2022-10-16T17:13:24;16.80;99.90
66568;DHT22;53422;49.296;6.900;2022-10-16T17:15:51;16.80;99.90
66568;DHT22;53422;49.296;6.900;2022-10-16T17:18:17;16.70;99.90
66568;DHT22;53422;49.296;6.900;2022-10-16T17:20:43;16.70;99.90
66568;DHT22;53422;49.296;6.900;2022-10-16T17:23:10;16.70;99.90
66568;DHT22;53422;49.296;6.900;2022-10-16T17:25:40;16.60;99.90
66568;DHT22;53422;49.296;6.900;2022-10-16T17:28:06;16.60;99.90
66568;DHT22;53422;49.296;6.900;2022-10-16T17:30:33;16.50;99.90